Accueil
METAR-TAF:

METAR-TAF

Aéroports :

Westerly State Airport

Westerly, Rhode Island, États-Unis

latitude: 41-20-59N, longitude: 071-47-56W, altitude: 24 m

Observation

Le bulletin a été fait il y a 44 minutes, à 23:53 UTC
Vent 5 kt de sud-est
Température 23°C
Humidité 65%
Pression 1024 hPa
Visibilité: 16.1 km

METAR: KWST 152353Z AUTO 14005KT 10SM 23/16 A3024 RMK AO2 SLP240 T02280161 10272 20228 53003 $

Heure: 20:37 (00:37 UTC)


TAF: absent

Observations et prévisions météorologiques de plus de 4000 aéroports (messages METAR et TAF).

Les stations disponibles sont représentées par des disques jaunes et rouges sur la carte.

Passer la souris dessus pour voir le nom de la station.

Cliquer dessus pour voir les observations et prévisions météorologiques.

Pour changer de carte: cliquez sur les boutons verts avec une croix noire pour zoomer, sur le bouton vert avec un tiret pour effectuer un zoom arrière, ou sur les flèches vertes pour les cartes adjacentes.


METAR-TAF: